Hlavní strana
METAR-TAF:

METAR-TAF

Letiště :

Luni

Sarzana, Itálie

zeměpisná šířka: 44-05N, zeměpisná délka: 009-59E, výška: 9 m

Aktuální stav počasí

Zpráva byla vytvořena před 1 hodinou a 15 minutami, v 18:55 UTC
Bezvětří
Teplota 6°C
Vlhkost vzduchu 28%
Tlak 1018 hPa
Viditelnost 10 km a více
Žádná oblačnost pod 1500 m, nevyskytují se cumulonimby.

METAR: LIQW 111855Z 00000KT CAVOK 06/M11 Q1018 RMK SKC VIS MIN 9999 WIND THR18 14005KT BLU

Čas: 21:10 (20:10 UTC)


TAF: chybějící

Stav a předpovědi počasí z více než 4 000 letišť (zprávy METAR a TAF).

Červené a žluté tečky na mapě představují dostupné meteorologické stanice.

Když kurzor umístíte na tečku, zobrazí se název stanice.

Pak kliknutím zobrazíte stav a předpověď počasí.

Chcete-li změnit mapu, kliknutím na zelené tlačítko se znaménkem +mapu přiblížíte, kliknutím na zelené tlačítko se znaménkem – mapu oddálíte a kliknutím na zelené šipky přejdete na sousední mapy.


METAR-TAF: